Time;durP1;ratioP1;P1;durP2;ratioP2;P2;SDS_P1;SDS_P2;PMS_P1;PMS_P2;Temp;Humidity;BMP_temperature;BMP_pressure;BME280_temperature;BME280_humidity;BME280_pressure;Samples;Min_cycle;Max_cycle;Signal;HPM_P1;HPM_P2
2021/11/15 00:00:30;;;;;;;50.28;24.65;;;;;;;6.84;95.35;97615.94;4947867;29;20051;-64
2021/11/15 00:02:57;;;;;;;53.72;24.40;;;;;;;3.72;95.25;97089.91;4948238;29;20170;-64
2021/11/15 00:05:24;;;;;;;72.30;28.50;;;;;;;7.28;95.58;97661.34;4947522;29;20095;-65
2021/11/15 00:07:51;;;;;;;102.47;39.90;;;;;;;7.34;95.91;97666.34;4946284;29;20051;-62
2021/11/15 00:10:18;;;;;;;76.40;33.78;;;;;;;6.92;95.20;97593.06;4946097;29;20075;-62
2021/11/15 00:12:52;;;;;;;51.85;22.55;;;;;;;7.39;94.65;97657.88;4947969;29;20122;-62
2021/11/15 00:15:20;;;;;;;44.70;19.65;;;;;;;7.36;94.91;97664.06;4948043;29;20055;-64
2021/11/15 00:17:47;;;;;;;40.72;19.55;;;;;;;7.35;95.29;97656.94;4946506;29;20051;-63
2021/11/15 00:20:15;;;;;;;43.88;19.40;;;;;;;7.28;94.90;97633.81;4947680;29;20442;-63
2021/11/15 00:22:43;;;;;;;57.88;22.55;;;;;;;7.35;94.57;97645.91;4947747;28;20057;-64
2021/11/15 00:25:11;;;;;;;59.33;22.63;;;;;;;6.50;94.96;97507.94;4947800;29;20051;-64
2021/11/15 00:27:38;;;;;;;55.15;25.23;;;;;;;6.78;95.75;97578.69;4947641;29;20055;-64
2021/11/15 00:30:07;;;;;;;48.22;22.77;;;;;;;6.72;97.12;97582.78;4947558;28;20057;-62
2021/11/15 00:32:34;;;;;;;34.85;18.90;;;;;;;7.24;97.20;97657.66;4947276;29;20051;-62
2021/11/15 00:35:02;;;;;;;39.08;19.52;;;;;;;6.83;98.62;97605.25;4946016;29;20093;-63
2021/11/15 00:37:28;;;;;;;43.40;18.20;;;;;;;6.70;98.93;97595.28;4946042;29;20051;-62
2021/11/15 00:39:55;;;;;;;47.15;22.40;;;;;;;6.83;98.66;97595.03;4946973;28;20061;-62
2021/11/15 00:42:22;;;;;;;49.83;24.27;;;;;;;7.20;99.15;97641.00;4946775;29;20629;-63
2021/11/15 00:44:49;;;;;;;47.92;22.42;;;;;;;7.30;98.45;97637.81;4945488;29;20116;-63
2021/11/15 00:47:16;;;;;;;39.00;18.10;;;;;;;7.23;98.89;97651.34;4946679;28;20514;-62
2021/11/15 00:49:43;;;;;;;42.70;17.63;;;;;;;6.89;98.82;97593.69;4946588;28;20070;-62
2021/11/15 00:52:10;;;;;;;41.30;17.98;;;;;;;7.28;99.12;97640.13;4946752;29;20051;-63
2021/11/15 00:54:37;;;;;;;37.78;17.45;;;;;;;7.31;98.32;97644.97;4947058;29;20620;-62
2021/11/15 00:57:05;;;;;;;37.08;18.23;;;;;;;7.08;98.56;97618.84;4947010;29;20055;-63
2021/11/15 00:59:32;;;;;;;49.25;21.00;;;;;;;7.35;98.95;97645.91;4946815;29;20585;-63
2021/11/15 01:02:02;;;;;;;38.88;19.85;;;;;;;7.47;97.83;97645.19;4946629;28;20059;-64
2021/11/15 01:04:29;;;;;;;39.28;18.92;;;;;;;7.44;97.25;97643.91;4946583;29;20454;-63
2021/11/15 01:06:56;;;;;;;33.05;16.23;;;;;;;7.35;99.38;97645.91;4946535;29;20051;-65
2021/11/15 01:09:24;;;;;;;32.60;15.73;;;;;;;7.21;100.00;97650.84;4946558;28;20051;-62
2021/11/15 01:11:53;;;;;;;38.83;18.52;;;;;;;7.31;100.00;97653.25;4946349;29;20562;-64
2021/11/15 01:14:21;;;;;;;39.60;18.48;;;;;;;7.32;100.00;97646.56;4946937;28;20544;-62
2021/11/15 01:16:49;;;;;;;48.05;21.30;;;;;;;7.39;100.00;97644.09;4946506;29;20490;-63
2021/11/15 01:19:16;;;;;;;40.78;18.70;;;;;;;7.45;100.00;97651.03;4945011;29;20439;-63
2021/11/15 01:21:43;;;;;;;61.40;21.05;;;;;;;7.58;100.00;97655.47;4946487;29;20055;-63
2021/11/15 01:24:10;;;;;;;42.00;19.33;;;;;;;7.63;99.76;97646.97;4946551;29;20063;-65
2021/11/15 01:26:38;;;;;;;52.58;21.40;;;;;;;7.52;100.00;97648.53;4946388;29;20051;-62
2021/11/15 01:29:06;;;;;;;75.80;27.02;;;;;;;7.57;100.00;97648.34;4946062;29;20063;-62
2021/11/15 01:31:33;;;;;;;73.47;27.80;;;;;;;7.62;100.00;97648.13;4945129;29;20055;-63
2021/11/15 01:34:02;;;;;;;49.90;20.73;;;;;;;7.47;100.00;97621.19;4946008;29;20065;-63
2021/11/15 01:36:29;;;;;;;41.83;19.00;;;;;;;7.31;100.00;97605.56;4945853;29;20129;-63
2021/11/15 01:38:56;;;;;;;60.20;24.25;;;;;;;7.48;100.00;97606.25;4946274;28;20085;-63
2021/11/15 01:41:23;;;;;;;57.10;22.88;;;;;;;7.81;99.83;97641.34;4946314;28;20058;-62
2021/11/15 01:43:50;;;;;;;44.38;19.95;;;;;;;7.83;99.28;97644.56;4944368;29;20055;-64
2021/11/15 01:46:18;;;;;;;40.22;18.55;;;;;;;7.84;98.82;97643.44;4945788;29;20055;-64
2021/11/15 01:48:45;;;;;;;35.40;15.93;;;;;;;7.83;98.38;97650.06;4944390;29;20058;-65
2021/11/15 01:51:11;;;;;;;38.60;16.73;;;;;;;7.82;97.67;97638.25;4945350;28;20059;-65
2021/11/15 01:53:38;;;;;;;34.13;16.88;;;;;;;7.83;97.84;97639.84;4945717;29;20047;-64
2021/11/15 01:56:06;;;;;;;33.67;16.02;;;;;;;7.45;97.55;97590.41;4944451;29;20130;-64
2021/11/15 01:58:33;;;;;;;42.35;19.30;;;;;;;7.88;97.85;97641.59;4945866;28;20066;-67
2021/11/15 02:01:01;;;;;;;41.40;17.70;;;;;;;7.90;96.49;97640.13;4945800;28;20047;-64
2021/11/15 02:03:29;;;;;;;32.40;16.15;;;;;;;7.73;97.21;97640.25;4945939;29;20058;-64
2021/11/15 02:05:57;;;;;;;34.40;17.05;;;;;;;7.64;98.91;97643.09;4944084;29;20047;-64
2021/11/15 02:08:24;;;;;;;35.63;18.60;;;;;;;6.76;98.35;97490.16;4944454;29;20051;-65
2021/11/15 02:10:51;;;;;;;32.25;16.27;;;;;;;7.66;98.19;97645.53;4945569;28;20063;-66
2021/11/15 02:13:20;;;;;;;32.03;15.48;;;;;;;7.58;98.27;97638.13;4945818;29;20058;-64
2021/11/15 02:15:48;;;;;;;25.45;12.82;;;;;;;5.20;97.81;97269.78;4943926;29;20479;-67
2021/11/15 02:18:16;;;;;;;32.20;16.33;;;;;;;7.30;98.56;97640.59;4945637;29;20142;-65
2021/11/15 02:20:47;;;;;;;29.75;14.20;;;;;;;7.21;99.33;97626.06;4945419;29;20121;-64
2021/11/15 02:23:16;;;;;;;31.45;14.30;;;;;;;6.91;99.08;97613.44;4944557;29;20061;-64
2021/11/15 02:25:45;;;;;;;33.95;14.95;;;;;;;7.16;99.05;97640.03;4943834;28;20094;-64
2021/11/15 02:28:13;;;;;;;30.38;14.73;;;;;;;7.06;98.90;97664.41;4944878;29;20058;-64
2021/11/15 02:30:41;;;;;;;33.20;16.35;;;;;;;7.03;98.72;97637.53;4945360;29;20055;-65
2021/11/15 02:33:09;;;;;;;32.22;14.65;;;;;;;6.94;100.00;97645.03;4945586;29;20134;-64
2021/11/15 02:35:38;;;;;;;34.33;15.65;;;;;;;6.88;100.00;97641.66;4944013;29;20055;-65
2021/11/15 02:38:05;;;;;;;32.47;16.45;;;;;;;6.87;100.00;97639.25;4945590;29;20051;-65
2021/11/15 02:40:32;;;;;;;32.50;16.20;;;;;;;6.68;100.00;97641.59;4945571;29;20055;-64
2021/11/15 02:43:00;;;;;;;36.17;15.55;;;;;;;6.74;100.00;97634.75;4945889;29;20441;-64
2021/11/15 02:45:27;;;;;;;30.85;15.05;;;;;;;6.83;100.00;97647.34;4944408;29;20051;-65
2021/11/15 02:47:55;;;;;;;37.63;16.75;;;;;;;6.88;100.00;97651.84;4945702;29;20051;-65
2021/11/15 02:50:28;;;;;;;31.75;15.70;;;;;;;6.85;100.00;97653.34;4943996;29;20088;-64
2021/11/15 02:52:58;;;;;;;38.97;16.45;;;;;;;6.77;100.00;97634.09;4936039;28;20047;-64
2021/11/15 02:55:28;;;;;;;27.27;14.25;;;;;;;6.41;100.00;97582.31;4943442;29;20438;-65
2021/11/15 02:57:56;;;;;;;34.88;15.05;;;;;;;6.50;99.80;97585.81;4944170;29;20059;-64
2021/11/15 03:00:33;;;;;;;33.30;16.50;;;;;;;6.95;99.78;97658.47;4945190;29;20051;-64
2021/11/15 03:03:00;;;;;;;31.08;16.85;;;;;;;5.76;99.35;97471.88;4945813;28;20173;-65
2021/11/15 03:05:31;;;;;;;32.58;15.90;;;;;;;6.94;99.28;97651.34;4948964;29;20089;-64
2021/11/15 03:07:58;;;;;;;44.72;19.92;;;;;;;6.91;100.00;97663.03;4947448;29;20553;-66
2021/11/15 03:10:26;;;;;;;52.63;22.83;;;;;;;6.89;99.27;97662.53;4948678;29;20063;-65
2021/11/15 03:12:53;;;;;;;60.92;25.05;;;;;;;6.64;100.00;97643.41;4949098;29;20055;-66
2021/11/15 03:15:27;;;;;;;50.15;22.15;;;;;;;6.65;100.00;97648.56;4948345;29;20062;-64
2021/11/15 03:18:28;;;;;;;35.08;17.92;;;;;;;6.71;100.00;97646.44;4947459;29;20078;-65
2021/11/15 03:21:00;;;;;;;39.55;18.45;;;;;;;6.46;100.00;97606.06;4944397;29;20066;-64
2021/11/15 03:23:30;;;;;;;39.53;17.58;;;;;;;6.75;99.90;97653.69;4948652;28;20196;-65
2021/11/15 03:25:57;;;;;;;51.17;22.40;;;;;;;6.72;100.00;97653.56;4948285;29;20066;-65
2021/11/15 03:28:27;;;;;;;49.88;24.27;;;;;;;6.77;100.00;97656.94;4947801;29;20085;-65
2021/11/15 03:30:58;;;;;;;44.63;21.65;;;;;;;6.23;99.96;97569.75;4948256;29;20055;-67
2021/11/15 03:33:27;;;;;;;47.53;20.73;;;;;;;6.84;100.00;97661.94;4948440;29;20561;-66
2021/11/15 03:35:54;;;;;;;46.15;21.17;;;;;;;6.09;100.00;97555.41;4948488;29;20101;-65
2021/11/15 03:38:21;;;;;;;50.00;23.17;;;;;;;5.85;100.00;97491.91;4946909;29;20166;-65
2021/11/15 03:40:48;;;;;;;48.53;23.20;;;;;;;6.94;100.00;97667.88;4948392;29;20055;-66
2021/11/15 03:43:15;;;;;;;49.40;24.13;;;;;;;4.88;100.00;97335.47;4948701;29;20062;-65
2021/11/15 03:45:42;;;;;;;51.25;23.55;;;;;;;6.97;100.00;97658.16;4946842;29;20081;-65
2021/11/15 03:48:11;;;;;;;57.63;24.85;;;;;;;6.60;100.00;97604.72;4948286;29;20138;-64
2021/11/15 03:50:39;;;;;;;61.80;26.08;;;;;;;7.08;100.00;97667.66;4962476;28;20066;-64
2021/11/15 03:53:09;;;;;;;56.15;26.10;;;;;;;7.14;100.00;97683.66;4948560;29;20109;-65
2021/11/15 03:55:36;;;;;;;70.32;30.38;;;;;;;7.19;99.97;97658.66;4947841;29;20514;-65
2021/11/15 03:58:04;;;;;;;87.55;33.75;;;;;;;7.21;99.39;97661.88;4948285;29;20529;-65
2021/11/15 04:00:34;;;;;;;49.65;23.50;;;;;;;7.36;97.70;97674.28;4946670;29;20051;-64
2021/11/15 04:03:08;;;;;;;63.28;24.90;;;;;;;6.28;97.83;97577.81;4948281;29;20106;-64
2021/11/15 04:05:38;;;;;;;56.78;25.17;;;;;;;7.12;99.21;97669.41;4947362;29;20051;-64
2021/11/15 04:08:06;;;;;;;57.50;23.95;;;;;;;6.78;100.00;97669.56;4946159;29;20537;-64
2021/11/15 04:10:42;;;;;;;52.45;20.67;;;;;;;7.00;100.00;97674.78;4962150;28;20216;-64
2021/11/15 04:13:10;;;;;;;45.30;22.52;;;;;;;7.05;100.00;97669.09;4948217;28;20063;-64
2021/11/15 04:15:38;;;;;;;45.38;20.65;;;;;;;6.55;100.00;97584.81;4946940;28;20134;-65
2021/11/15 04:18:08;;;;;;;65.45;26.23;;;;;;;7.14;100.00;97678.16;4946682;29;20131;-65
2021/11/15 04:20:36;;;;;;;61.45;24.00;;;;;;;7.06;100.00;97670.75;4947683;29;20058;-65
2021/11/15 04:23:03;;;;;;;56.85;25.42;;;;;;;7.22;99.33;97674.50;4947397;29;20047;-64
2021/11/15 04:25:30;;;;;;;59.83;24.38;;;;;;;6.68;98.87;97598.38;4947749;29;20055;-64
2021/11/15 04:27:56;;;;;;;60.40;24.88;;;;;;;6.23;98.90;97514.72;4946068;29;20446;-64
2021/11/15 04:30:23;;;;;;;57.00;22.77;;;;;;;6.87;98.63;97612.50;4947440;29;20059;-65
2021/11/15 04:32:50;;;;;;;44.03;21.83;;;;;;;6.91;99.41;97623.66;4945624;29;20624;-65
2021/11/15 04:35:18;;;;;;;48.28;22.23;;;;;;;7.33;99.24;97692.28;4946959;29;20047;-64
2021/11/15 04:37:46;;;;;;;50.15;23.27;;;;;;;7.36;98.47;97685.31;4945515;29;20065;-64
2021/11/15 04:40:13;;;;;;;59.03;24.60;;;;;;;7.02;97.89;97625.69;4947170;29;20051;-66
2021/11/15 04:42:40;;;;;;;60.75;26.15;;;;;;;7.44;98.02;97679.75;4947349;28;20055;-65
2021/11/15 04:45:07;;;;;;;54.17;28.30;;;;;;;7.50;97.44;97686.66;4947065;28;20146;-65
2021/11/15 04:47:34;;;;;;;64.43;26.90;;;;;;;7.51;97.72;97693.78;4947026;28;20512;-65
2021/11/15 04:50:02;;;;;;;67.85;27.30;;;;;;;7.13;98.11;97643.47;4947225;28;20057;-63
2021/11/15 04:52:29;;;;;;;70.47;31.33;;;;;;;7.55;97.26;97700.25;4946740;29;20058;-65
2021/11/15 04:54:56;;;;;;;57.30;28.45;;;;;;;7.47;98.33;97703.06;4946721;29;20724;-63
2021/11/15 04:57:24;;;;;;;51.67;24.42;;;;;;;7.43;99.41;97705.69;4946842;28;20090;-63
2021/11/15 04:59:51;;;;;;;50.28;23.58;;;;;;;7.22;98.78;97659.94;4947283;29;20056;-63
2021/11/15 05:02:17;;;;;;;48.70;23.48;;;;;;;7.65;98.49;97716.38;4945367;29;20527;-63
2021/11/15 05:04:44;;;;;;;52.28;24.45;;;;;;;7.64;98.64;97713.97;4945691;29;20054;-64
2021/11/15 05:07:11;;;;;;;72.78;32.72;;;;;;;7.68;98.14;97712.97;4944986;29;20073;-63
2021/11/15 05:09:38;;;;;;;62.63;31.63;;;;;;;7.72;98.01;97716.69;4945579;29;20070;-63
2021/11/15 05:12:05;;;;;;;62.58;31.05;;;;;;;7.66;98.43;97734.56;4946368;29;20059;-63
2021/11/15 05:14:32;;;;;;;65.47;28.30;;;;;;;7.67;98.45;97727.09;4947196;29;20051;-64
2021/11/15 05:16:59;;;;;;;51.83;22.90;;;;;;;7.71;98.25;97726.06;4947361;29;20130;-64
2021/11/15 05:19:26;;;;;;;49.35;23.45;;;;;;;7.74;98.41;97725.41;4945862;29;20054;-65
2021/11/15 05:21:53;;;;;;;49.25;24.08;;;;;;;7.76;98.49;97729.78;4945334;29;20062;-65
2021/11/15 05:24:24;;;;;;;54.78;26.25;;;;;;;7.78;98.48;97731.06;4945131;29;20061;-64
2021/11/15 05:26:51;;;;;;;55.63;25.85;;;;;;;7.81;98.56;97735.13;4946584;28;20537;-63
2021/11/15 05:29:17;;;;;;;52.88;25.90;;;;;;;7.43;98.69;97697.41;4944819;29;20051;-65
2021/11/15 05:31:44;;;;;;;73.50;33.97;;;;;;;7.91;98.43;97740.22;4945420;29;20059;-64
2021/11/15 05:34:11;;;;;;;71.70;32.25;;;;;;;7.19;97.64;97620.06;4947071;29;20059;-64
2021/11/15 05:36:38;;;;;;;64.55;29.60;;;;;;;7.90;97.51;97738.59;4960952;28;20073;-65
2021/11/15 05:39:05;;;;;;;76.60;33.95;;;;;;;7.97;98.05;97752.66;4946606;29;20066;-64
2021/11/15 05:41:33;;;;;;;69.70;32.47;;;;;;;7.27;98.14;97682.59;4945995;29;20507;-64
2021/11/15 05:44:00;;;;;;;55.63;28.25;;;;;;;7.51;97.20;97693.78;4946344;29;20062;-64
2021/11/15 05:46:27;;;;;;;58.85;26.77;;;;;;;7.58;97.69;97710.63;4946019;29;20114;-64
2021/11/15 05:48:53;;;;;;;53.40;26.45;;;;;;;7.98;97.92;97766.13;4960502;28;20059;-65
2021/11/15 05:51:20;;;;;;;50.75;24.77;;;;;;;7.64;98.22;97730.50;4945843;29;20059;-64
2021/11/15 05:53:47;;;;;;;63.55;30.15;;;;;;;8.09;95.59;97758.25;4946272;29;20047;-65
2021/11/15 05:56:14;;;;;;;61.03;30.83;;;;;;;7.66;95.55;97695.16;4945778;29;20062;-64
2021/11/15 05:58:41;;;;;;;61.25;32.13;;;;;;;8.15;96.46;97773.47;4946138;29;20422;-63
2021/11/15 06:01:08;;;;;;;58.53;28.33;;;;;;;8.03;96.49;97749.34;4945656;29;20047;-64
2021/11/15 06:03:35;;;;;;;57.35;28.63;;;;;;;8.15;96.23;97771.53;4944354;29;20059;-65
2021/11/15 06:06:02;;;;;;;52.42;27.02;;;;;;;8.02;96.04;97742.25;4944652;29;20077;-65
2021/11/15 06:08:28;;;;;;;46.15;23.23;;;;;;;8.27;95.73;97790.09;4944962;29;20065;-65
2021/11/15 06:10:55;;;;;;;52.15;24.25;;;;;;;8.29;96.01;97791.41;4959915;28;20063;-64
2021/11/15 06:13:22;;;;;;;47.88;23.60;;;;;;;8.02;95.53;97741.41;4945619;28;20070;-64
2021/11/15 06:15:49;;;;;;;43.88;22.75;;;;;;;6.37;93.98;97442.97;4945599;28;20055;-64
2021/11/15 06:18:16;;;;;;;48.35;21.52;;;;;;;8.20;94.40;97748.44;4943647;28;20063;-64
2021/11/15 06:20:44;;;;;;;44.80;20.90;;;;;;;8.55;95.01;97799.47;4943172;29;20507;-66
2021/11/15 06:23:11;;;;;;;50.33;23.15;;;;;;;8.28;95.08;97745.63;4942506;29;20047;-65
2021/11/15 06:25:42;;;;;;;53.20;25.23;;;;;;;8.71;95.29;97794.94;4944157;28;20522;-65
2021/11/15 06:28:10;;;;;;;61.38;28.67;;;;;;;8.23;94.94;97721.00;4942870;29;20047;-64
2021/11/15 06:30:37;;;;;;;62.78;29.60;;;;;;;8.53;94.39;97754.81;4942782;28;20143;-65
2021/11/15 06:33:03;;;;;;;55.05;26.52;;;;;;;9.01;93.18;97812.97;4943024;28;20057;-64
2021/11/15 06:35:30;;;;;;;53.10;24.55;;;;;;;6.66;92.51;97424.47;4943124;28;20530;-64
2021/11/15 06:37:58;;;;;;;48.17;24.27;;;;;;;9.15;92.34;97800.44;4947408;28;20051;-64
2021/11/15 06:40:26;;;;;;;54.67;24.80;;;;;;;8.77;92.38;97752.13;4948315;29;20066;-65
2021/11/15 06:42:53;;;;;;;58.35;25.23;;;;;;;8.90;92.45;97762.03;4949565;28;20075;-64
2021/11/15 06:45:20;;;;;;;61.22;27.90;;;;;;;9.23;92.21;97815.34;4951402;29;20063;-64
2021/11/15 06:47:47;;;;;;;53.80;24.88;;;;;;;9.33;92.91;97817.63;4948392;28;20546;-63
2021/11/15 06:50:18;;;;;;;66.47;28.10;;;;;;;8.70;90.97;97732.53;4954169;28;20055;-63
2021/11/15 06:52:45;;;;;;;50.00;24.42;;;;;;;9.46;90.65;97835.88;4963511;28;20145;-64
2021/11/15 06:55:14;;;;;;;57.70;25.92;;;;;;;9.18;91.63;97790.69;4940227;29;20063;-65
2021/11/15 06:57:41;;;;;;;58.03;27.30;;;;;;;9.50;91.87;97824.94;4938053;28;20047;-63
2021/11/15 07:00:12;;;;;;;44.40;22.52;;;;;;;9.39;92.35;97821.78;4949500;28;21118;-65
2021/11/15 07:02:43;;;;;;;45.00;22.08;;;;;;;9.33;91.77;97787.22;4950768;28;20612;-63
2021/11/15 07:05:11;;;;;;;37.03;20.58;;;;;;;9.34;91.50;97766.75;4948760;28;20057;-66
2021/11/15 07:07:38;;;;;;;39.92;20.77;;;;;;;9.89;91.34;97816.75;4943436;29;20052;-66
2021/11/15 07:10:07;;;;;;;44.85;22.00;;;;;;;9.69;90.69;97762.34;4932138;29;20066;-66
2021/11/15 07:12:34;;;;;;;46.53;22.98;;;;;;;9.58;90.23;97722.47;4934563;29;20057;-68
2021/11/15 07:15:01;;;;;;;46.80;23.23;;;;;;;10.36;89.71;97837.25;4950558;29;20473;-63
2021/11/15 07:17:28;;;;;;;57.47;27.25;;;;;;;10.47;88.24;97815.41;4938164;29;20059;-64
2021/11/15 07:19:55;;;;;;;52.58;27.52;;;;;;;9.93;86.74;97706.16;4936928;28;20056;-66
2021/11/15 07:22:28;;;;;;;62.05;25.95;;;;;;;10.16;85.94;97749.59;4946496;28;20064;-62
2021/11/15 07:24:55;;;;;;;53.25;26.02;;;;;;;9.60;86.13;97698.03;4933320;28;20055;-66
2021/11/15 07:27:22;;;;;;;50.25;25.30;;;;;;;10.36;86.12;97776.31;4937876;29;20063;-62
2021/11/15 07:29:49;;;;;;;49.55;24.92;;;;;;;10.83;85.40;97822.78;4937895;28;20059;-64
2021/11/15 07:32:16;;;;;;;50.05;24.80;;;;;;;10.65;84.86;97770.44;4932039;29;20051;-67
2021/11/15 07:34:43;;;;;;;60.53;26.88;;;;;;;11.07;84.30;97826.25;4931605;29;20048;-69
2021/11/15 07:37:10;;;;;;;55.47;27.23;;;;;;;10.63;82.96;97753.38;4932652;29;20605;-68
2021/11/15 07:39:46;;;;;;;68.32;31.40;;;;;;;11.23;83.01;97815.19;4931353;29;20056;-61
2021/11/15 07:42:17;;;;;;;55.17;26.08;;;;;;;11.35;82.83;97823.44;4931454;29;20101;-68
2021/11/15 07:44:45;;;;;;;59.20;27.38;;;;;;;11.44;82.40;97849.03;4933176;28;20063;-68
2021/11/15 07:47:15;;;;;;;50.55;27.42;;;;;;;11.35;80.79;97795.72;4937318;29;20052;-66
2021/11/15 07:49:43;;;;;;;47.50;26.13;;;;;;;11.31;78.41;97816.97;4937142;28;20043;-61
2021/11/15 07:52:11;;;;;;;53.92;26.60;;;;;;;11.69;77.90;97833.88;4938762;29;20039;-60
2021/11/15 07:54:38;;;;;;;48.85;25.80;;;;;;;10.63;78.58;97675.81;4934827;28;20348;-66
2021/11/15 07:57:08;;;;;;;68.82;38.33;;;;;;;11.69;78.63;97834.69;4939947;28;20146;-65
2021/11/15 07:59:35;;;;;;;64.55;30.17;;;;;;;11.18;78.45;97748.88;4930371;29;20066;-65
2021/11/15 08:02:03;;;;;;;55.15;25.73;;;;;;;11.81;77.83;97836.53;4931181;28;20118;-67
2021/11/15 08:04:31;;;;;;;53.55;27.15;;;;;;;11.79;77.73;97833.34;4928494;29;20067;-62
2021/11/15 08:06:58;;;;;;;53.15;27.60;;;;;;;11.65;77.89;97788.59;4928342;29;20056;-66
2021/11/15 08:09:25;;;;;;;49.53;24.05;;;;;;;10.64;77.51;97604.56;4952756;28;20047;-62
2021/11/15 08:12:00;;;;;;;37.67;20.70;;;;;;;11.87;77.64;97801.81;4938270;28;20067;-60
2021/11/15 08:14:27;;;;;;;38.85;19.92;;;;;;;11.69;77.96;97748.66;4947533;28;20566;-68
2021/11/15 08:16:54;;;;;;;45.60;23.25;;;;;;;10.92;77.08;97615.56;4944438;28;20051;-63
2021/11/15 08:19:21;;;;;;;41.50;19.80;;;;;;;11.88;77.28;97764.53;4939556;28;20078;-67
2021/11/15 08:21:48;;;;;;;48.78;24.05;;;;;;;12.52;77.64;97834.25;4928173;29;20547;-66
2021/11/15 08:24:15;;;;;;;47.33;25.20;;;;;;;12.70;77.51;97829.91;4928876;28;20060;-64
2021/11/15 08:26:57;;;;;;;56.88;27.35;;;;;;;12.75;76.25;97804.59;4928236;29;20048;-69
2021/11/15 08:29:31;;;;;;;40.58;19.45;;;;;;;12.95;74.94;97822.88;4928104;29;20534;-64
2021/11/15 08:32:06;;;;;;;97.57;37.83;;;;;;;11.22;75.06;97552.91;4935831;29;20108;-66
2021/11/15 08:34:34;;;;;;;44.00;20.58;;;;;;;13.06;74.30;97843.38;4939573;28;20056;-68
2021/11/15 08:37:03;;;;;;;37.85;18.10;;;;;;;12.88;74.93;97831.06;4939581;29;20043;-63
2021/11/15 08:39:30;;;;;;;36.80;18.98;;;;;;;11.42;78.29;97751.50;4934783;29;20051;-67
2021/11/15 08:42:03;;;;;;;32.47;17.63;;;;;;;11.59;78.74;97784.41;4931540;29;20047;-68
2021/11/15 08:44:32;;;;;;;34.33;16.67;;;;;;;12.26;77.32;97831.28;4937765;29;20047;-63
2021/11/15 08:47:00;;;;;;;32.53;17.95;;;;;;;12.53;77.00;97830.31;4945332;28;20622;-61
2021/11/15 08:49:29;;;;;;;38.78;17.35;;;;;;;12.85;76.16;97831.78;4961267;28;20047;-64
2021/11/15 08:52:01;;;;;;;39.28;17.83;;;;;;;11.14;73.75;97565.00;4937514;29;20055;-69
2021/11/15 08:54:32;;;;;;;35.72;16.15;;;;;;;12.11;73.56;97746.84;4943358;29;20051;-67
2021/11/15 08:57:02;;;;;;;31.90;16.15;;;;;;;11.62;77.34;97811.44;4941774;29;20051;-65
2021/11/15 08:59:41;;;;;;;35.22;18.27;;;;;;;10.79;79.33;97755.38;4934249;29;20126;-64
2021/11/15 09:02:08;;;;;;;33.20;17.63;;;;;;;10.49;78.13;97719.72;4931060;29;20061;-63
2021/11/15 09:04:37;;;;;;;33.53;18.63;;;;;;;11.08;80.48;97777.94;4935192;29;20506;-62
2021/11/15 09:07:04;;;;;;;38.90;18.38;;;;;;;11.49;78.90;97857.09;4941156;29;20486;-63
2021/11/15 09:09:31;;;;;;;31.17;17.30;;;;;;;11.80;75.32;97840.50;4939984;29;20079;-65
2021/11/15 09:12:02;;;;;;;35.40;19.20;;;;;;;11.53;76.75;97852.44;4936373;29;20404;-62
2021/11/15 09:14:28;;;;;;;36.15;18.40;;;;;;;11.26;77.27;97803.38;4960457;28;20138;-63
2021/11/15 09:16:55;;;;;;;35.33;17.75;;;;;;;11.44;75.72;97829.63;4939805;29;20165;-65
2021/11/15 09:19:23;;;;;;;35.00;17.55;;;;;;;11.31;73.63;97755.97;4926260;28;20543;-63
2021/11/15 09:21:51;;;;;;;45.17;22.52;;;;;;;12.09;73.82;97820.59;4934869;29;20054;-67
2021/11/15 09:24:18;;;;;;;34.92;15.90;;;;;;;12.06;72.87;97835.19;4934809;29;20148;-65
2021/11/15 09:26:45;;;;;;;30.77;15.77;;;;;;;12.50;72.16;97836.63;4933716;29;20062;-64
2021/11/15 09:29:13;;;;;;;37.83;17.38;;;;;;;12.20;71.30;97732.75;4936245;29;20139;-61
2021/11/15 09:31:40;;;;;;;34.22;16.45;;;;;;;12.88;70.51;97764.31;4946013;28;20058;-69
2021/11/15 09:34:07;;;;;;;35.15;16.13;;;;;;;13.55;68.64;97816.50;4943928;28;20278;-68
2021/11/15 09:36:35;;;;;;;30.27;14.88;;;;;;;13.21;68.37;97744.31;4927901;28;20067;-63
2021/11/15 09:39:04;;;;;;;23.15;12.65;;;;;;;13.48;67.39;97813.59;4927174;29;20063;-60
2021/11/15 09:41:31;;;;;;;25.73;13.15;;;;;;;13.04;69.99;97820.69;4927076;29;20059;-67
2021/11/15 09:43:58;;;;;;;28.27;14.20;;;;;;;12.71;69.72;97720.31;4934154;28;20046;-63
2021/11/15 09:46:28;;;;;;;24.90;12.38;;;;;;;13.38;69.14;97811.44;4925735;29;20430;-65
2021/11/15 09:49:20;;;;;;;17.65;9.85;;;;;;;13.27;67.12;97816.00;4927428;29;20067;-64
2021/11/15 09:51:47;;;;;;;26.17;12.18;;;;;;;12.95;68.50;97808.97;4926516;29;20059;-65
2021/11/15 09:54:16;;;;;;;20.35;9.98;;;;;;;12.90;67.65;97733.41;4926933;29;20059;-65
2021/11/15 09:56:43;;;;;;;20.42;11.55;;;;;;;12.94;68.42;97757.31;4927414;29;20546;-65
2021/11/15 09:59:11;;;;;;;26.63;12.38;;;;;;;13.12;69.64;97808.53;4927308;29;20142;-61
2021/11/15 10:01:41;;;;;;;29.73;13.82;;;;;;;12.76;69.89;97711.66;4926953;29;20051;-63
2021/11/15 10:04:11;;;;;;;25.70;12.70;;;;;;;13.96;67.56;97808.44;4927028;29;20051;-65
2021/11/15 10:06:39;;;;;;;27.58;13.45;;;;;;;14.06;67.24;97764.03;4927000;29;20066;-66
2021/11/15 10:09:06;;;;;;;25.40;14.80;;;;;;;14.70;65.92;97807.56;4926699;29;20542;-63
2021/11/15 10:11:53;;;;;;;25.65;12.77;;;;;;;13.25;63.63;97528.97;4924313;29;20068;-64
2021/11/15 10:14:20;;;;;;;24.48;11.45;;;;;;;15.16;61.73;97811.72;4926666;29;20055;-63
2021/11/15 10:17:01;;;;;;;18.33;9.85;;;;;;;15.02;59.14;97808.75;4926156;29;20507;-65
2021/11/15 10:19:31;;;;;;;15.23;9.25;;;;;;;15.11;57.80;97804.50;4926208;29;20043;-64
2021/11/15 10:22:00;;;;;;;16.45;9.40;;;;;;;14.62;58.77;97803.88;4926422;29;20051;-63
2021/11/15 10:24:35;;;;;;;17.27;9.48;;;;;;;14.15;58.96;97721.94;4926335;29;20063;-64
2021/11/15 10:27:11;;;;;;;27.92;18.63;;;;;;;14.45;58.76;97725.56;4940614;29;20055;-63
2021/11/15 10:29:41;;;;;;;17.45;10.85;;;;;;;15.19;56.67;97806.19;4925845;28;20065;-61
2021/11/15 10:32:09;;;;;;;22.55;10.77;;;;;;;15.23;56.87;97797.84;4925671;29;20063;-59
2021/11/15 10:34:39;;;;;;;19.70;10.88;;;;;;;15.13;57.00;97796.53;4926354;29;20055;-61
2021/11/15 10:37:16;;;;;;;18.75;9.60;;;;;;;14.22;55.21;97733.19;4925652;29;20563;-61
2021/11/15 10:39:56;;;;;;;12.80;8.48;;;;;;;14.87;54.75;97804.22;4926104;29;20052;-61
2021/11/15 10:42:34;;;;;;;16.00;9.05;;;;;;;14.76;55.58;97803.28;4924322;29;20051;-61
2021/11/15 10:45:06;;;;;;;14.95;9.88;;;;;;;14.87;54.98;97804.22;4940860;29;20058;-64
2021/11/15 10:47:35;;;;;;;17.30;9.63;;;;;;;14.72;55.47;97817.16;4943847;29;20047;-62
2021/11/15 10:50:10;;;;;;;15.75;10.18;;;;;;;14.76;55.71;97803.28;4945351;28;20063;-67
2021/11/15 10:52:41;;;;;;;16.58;9.63;;;;;;;14.74;55.20;97800.03;4934047;29;20059;-67
2021/11/15 10:55:09;;;;;;;22.83;11.30;;;;;;;14.89;54.22;97782.31;4938393;29;20861;-67
2021/11/15 10:57:46;;;;;;;20.73;11.27;;;;;;;14.40;53.60;97734.28;4938874;29;20054;-63
2021/11/15 11:00:21;;;;;;;16.75;8.73;;;;;;;11.97;50.81;97374.47;4941073;29;20053;-59
2021/11/15 11:02:51;;;;;;;22.17;9.45;;;;;;;14.47;51.04;97798.47;4943729;28;20055;-60
2021/11/15 11:05:27;;;;;;;20.27;9.90;;;;;;;14.44;52.32;97810.41;4936634;29;20569;-59
2021/11/15 11:08:05;;;;;;;14.73;9.07;;;;;;;14.20;52.58;97813.56;4944755;29;20514;-62
2021/11/15 11:10:41;;;;;;;15.75;8.77;;;;;;;14.20;52.71;97819.16;4944891;29;20063;-60
2021/11/15 11:13:10;;;;;;;15.65;8.45;;;;;;;14.16;52.71;97818.31;4939907;29;20062;-61
2021/11/15 11:15:52;;;;;;;14.98;9.10;;;;;;;14.17;52.67;97819.91;4944407;29;20502;-59
2021/11/15 11:18:45;;;;;;;13.88;7.65;;;;;;;13.61;52.46;97748.19;4927237;29;20060;-60
2021/11/15 11:21:56;;;;;;;15.07;9.27;;;;;;;14.09;52.48;97807.03;4933880;29;20048;-60
2021/11/15 11:24:45;;;;;;;12.88;7.75;;;;;;;13.41;52.58;97759.78;4944757;28;20075;-58
2021/11/15 11:27:16;;;;;;;15.02;8.25;;;;;;;12.90;53.64;97711.16;4941569;29;20550;-60
2021/11/15 11:29:49;;;;;;;18.33;10.23;;;;;;;13.88;53.93;97829.00;4929311;29;20044;-63